sensor_id;sensor_type;location;lat;lon;timestamp;pressure;altitude;pressure_sealevel;temperature;humidity
29215;BME280;16252;49.816;7.964;2023-01-16T00:02:14;98572.09;;;7.68;65.06
29215;BME280;16252;49.816;7.964;2023-01-16T00:04:39;98592.03;;;7.84;65.08
29215;BME280;16252;49.816;7.964;2023-01-16T00:07:04;98574.19;;;7.74;64.97
29215;BME280;16252;49.816;7.964;2023-01-16T00:09:29;98567.91;;;7.75;65.02
29215;BME280;16252;49.816;7.964;2023-01-16T00:11:55;98568.47;;;7.79;65.03
29215;BME280;16252;49.816;7.964;2023-01-16T00:14:20;98562.31;;;7.78;64.59
29215;BME280;16252;49.816;7.964;2023-01-16T00:16:45;98521.31;;;7.50;64.96
29215;BME280;16252;49.816;7.964;2023-01-16T00:19:10;98554.22;;;7.80;64.79
29215;BME280;16252;49.816;7.964;2023-01-16T00:21:36;98531.75;;;7.73;64.41
29215;BME280;16252;49.816;7.964;2023-01-16T00:24:01;98521.63;;;7.67;64.72
29215;BME280;16252;49.816;7.964;2023-01-16T00:26:27;98492.88;;;7.51;64.65
29215;BME280;16252;49.816;7.964;2023-01-16T00:28:53;98514.03;;;7.62;64.58
29215;BME280;16252;49.816;7.964;2023-01-16T00:31:18;98515.03;;;7.61;64.42
29215;BME280;16252;49.816;7.964;2023-01-16T00:33:44;98527.22;;;7.64;64.62
29215;BME280;16252;49.816;7.964;2023-01-16T00:36:10;98480.53;;;7.50;64.54
29215;BME280;16252;49.816;7.964;2023-01-16T00:38:36;98476.34;;;7.47;64.53
29215;BME280;16252;49.816;7.964;2023-01-16T00:41:02;98516.63;;;7.73;64.74
29215;BME280;16252;49.816;7.964;2023-01-16T00:43:27;98499.09;;;7.71;64.83
29215;BME280;16252;49.816;7.964;2023-01-16T00:45:52;98482.09;;;7.62;64.63
29215;BME280;16252;49.816;7.964;2023-01-16T00:48:17;98502.06;;;7.77;64.52
29215;BME280;16252;49.816;7.964;2023-01-16T00:50:43;98487.19;;;7.65;64.35
29215;BME280;16252;49.816;7.964;2023-01-16T00:53:09;98500.53;;;7.75;64.50
29215;BME280;16252;49.816;7.964;2023-01-16T00:55:35;98500.66;;;7.73;64.51
29215;BME280;16252;49.816;7.964;2023-01-16T00:58:04;98476.78;;;7.62;64.45
29215;BME280;16252;49.816;7.964;2023-01-16T01:00:30;98471.34;;;7.64;64.68
29215;BME280;16252;49.816;7.964;2023-01-16T01:02:55;98460.69;;;7.64;64.65
29215;BME280;16252;49.816;7.964;2023-01-16T01:05:21;98470.25;;;7.76;64.44
29215;BME280;16252;49.816;7.964;2023-01-16T01:07:46;98473.75;;;7.76;64.38
29215;BME280;16252;49.816;7.964;2023-01-16T01:10:11;98446.81;;;7.60;64.37
29215;BME280;16252;49.816;7.964;2023-01-16T01:12:36;98467.28;;;7.69;64.42
29215;BME280;16252;49.816;7.964;2023-01-16T01:15:03;98467.72;;;7.74;64.83
29215;BME280;16252;49.816;7.964;2023-01-16T01:17:28;98471.22;;;7.85;64.65
29215;BME280;16252;49.816;7.964;2023-01-16T01:19:54;98457.25;;;7.82;64.77
29215;BME280;16252;49.816;7.964;2023-01-16T01:22:19;98458.22;;;7.91;64.72
29215;BME280;16252;49.816;7.964;2023-01-16T01:24:48;98456.81;;;7.97;64.56
29215;BME280;16252;49.816;7.964;2023-01-16T01:27:17;98435.06;;;7.82;64.39
29215;BME280;16252;49.816;7.964;2023-01-16T01:29:42;98422.88;;;7.79;64.43
29215;BME280;16252;49.816;7.964;2023-01-16T01:32:07;98438.47;;;7.94;64.49
29215;BME280;16252;49.816;7.964;2023-01-16T01:34:33;98437.06;;;7.99;64.50
29215;BME280;16252;49.816;7.964;2023-01-16T01:37:03;98397.66;;;7.84;64.44
29215;BME280;16252;49.816;7.964;2023-01-16T01:39:29;98433.00;;;8.05;64.34
29215;BME280;16252;49.816;7.964;2023-01-16T01:41:55;98410.28;;;7.91;63.96
29215;BME280;16252;49.816;7.964;2023-01-16T01:44:44;98434.84;;;8.14;64.14
29215;BME280;16252;49.816;7.964;2023-01-16T01:47:11;98375.25;;;7.86;64.08
29215;BME280;16252;49.816;7.964;2023-01-16T01:49:37;98366.00;;;7.80;64.25
29215;BME280;16252;49.816;7.964;2023-01-16T01:52:04;98386.16;;;8.02;64.09
29215;BME280;16252;49.816;7.964;2023-01-16T01:54:35;98376.94;;;8.07;63.93
29215;BME280;16252;49.816;7.964;2023-01-16T01:57:10;98384.63;;;8.19;63.90
29215;BME280;16252;49.816;7.964;2023-01-16T01:59:42;98370.19;;;8.12;63.88
29215;BME280;16252;49.816;7.964;2023-01-16T02:02:12;98386.75;;;8.25;63.74
29215;BME280;16252;49.816;7.964;2023-01-16T02:04:40;98380.41;;;8.36;63.27
29215;BME280;16252;49.816;7.964;2023-01-16T02:07:08;98379.72;;;8.24;63.60
29215;BME280;16252;49.816;7.964;2023-01-16T02:09:34;98345.69;;;8.09;63.82
29215;BME280;16252;49.816;7.964;2023-01-16T02:12:07;98354.06;;;8.23;63.80
29215;BME280;16252;49.816;7.964;2023-01-16T02:14:35;98354.38;;;8.20;63.82
29215;BME280;16252;49.816;7.964;2023-01-16T02:17:08;98331.38;;;8.10;63.73
29215;BME280;16252;49.816;7.964;2023-01-16T02:23:06;98322.09;;;8.23;63.51
29215;BME280;16252;49.816;7.964;2023-01-16T02:31:47;98294.63;;;8.23;63.01
29215;BME280;16252;49.816;7.964;2023-01-16T02:34:27;98275.84;;;8.05;63.08
29215;BME280;16252;49.816;7.964;2023-01-16T02:42:13;98255.56;;;7.94;63.90
29215;BME280;16252;49.816;7.964;2023-01-16T02:44:48;98258.78;;;7.98;64.01
29215;BME280;16252;49.816;7.964;2023-01-16T02:47:25;98259.19;;;8.03;63.79
29215;BME280;16252;49.816;7.964;2023-01-16T02:52:30;98243.88;;;8.05;64.19
29215;BME280;16252;49.816;7.964;2023-01-16T02:55:01;98232.09;;;8.08;64.03
29215;BME280;16252;49.816;7.964;2023-01-16T02:57:59;98209.00;;;8.08;63.72
29215;BME280;16252;49.816;7.964;2023-01-16T03:00:26;98216.69;;;8.11;63.79
29215;BME280;16252;49.816;7.964;2023-01-16T03:02:52;98208.59;;;8.03;63.78
29215;BME280;16252;49.816;7.964;2023-01-16T03:05:18;98162.13;;;7.88;63.46
29215;BME280;16252;49.816;7.964;2023-01-16T03:13:14;98191.72;;;8.12;63.20
29215;BME280;16252;49.816;7.964;2023-01-16T03:24:42;98154.63;;;8.01;62.79
29215;BME280;16252;49.816;7.964;2023-01-16T03:27:24;98131.84;;;7.79;62.78
29215;BME280;16252;49.816;7.964;2023-01-16T03:30:15;98151.88;;;7.93;62.76
29215;BME280;16252;49.816;7.964;2023-01-16T03:32:50;98130.72;;;7.81;62.99
29215;BME280;16252;49.816;7.964;2023-01-16T03:35:37;98130.72;;;7.81;62.92
29215;BME280;16252;49.816;7.964;2023-01-16T03:38:08;98130.72;;;7.81;63.00
29215;BME280;16252;49.816;7.964;2023-01-16T03:40:37;98134.59;;;7.97;62.57
29215;BME280;16252;49.816;7.964;2023-01-16T03:43:15;98101.88;;;7.77;62.86
29215;BME280;16252;49.816;7.964;2023-01-16T03:45:46;98126.50;;;7.89;63.23
29215;BME280;16252;49.816;7.964;2023-01-16T03:48:22;98099.47;;;7.84;62.93
29215;BME280;16252;49.816;7.964;2023-01-16T03:51:08;98097.31;;;7.97;63.03
29215;BME280;16252;49.816;7.964;2023-01-16T03:53:45;98082.47;;;7.94;63.09
29215;BME280;16252;49.816;7.964;2023-01-16T03:56:30;98036.94;;;7.70;62.79
29215;BME280;16252;49.816;7.964;2023-01-16T03:58:57;98028.06;;;7.69;63.16
29215;BME280;16252;49.816;7.964;2023-01-16T04:01:34;98074.84;;;8.09;62.92
29215;BME280;16252;49.816;7.964;2023-01-16T04:04:08;98073.88;;;8.10;62.87
29215;BME280;16252;49.816;7.964;2023-01-16T04:06:53;98063.88;;;8.12;62.90
29215;BME280;16252;49.816;7.964;2023-01-16T04:09:54;98056.28;;;8.17;62.79
29215;BME280;16252;49.816;7.964;2023-01-16T04:12:24;98048.81;;;8.03;62.91
29215;BME280;16252;49.816;7.964;2023-01-16T04:14:55;98046.09;;;8.13;62.92
29215;BME280;16252;49.816;7.964;2023-01-16T04:17:22;98032.59;;;8.14;62.96
29215;BME280;16252;49.816;7.964;2023-01-16T04:19:47;98027.28;;;8.14;62.89
29215;BME280;16252;49.816;7.964;2023-01-16T04:22:21;98024.94;;;8.29;62.49
29215;BME280;16252;49.816;7.964;2023-01-16T04:24:48;98008.63;;;8.14;62.69
29215;BME280;16252;49.816;7.964;2023-01-16T04:27:15;97960.53;;;7.98;62.45
29215;BME280;16252;49.816;7.964;2023-01-16T04:29:40;98008.06;;;8.20;62.48
29215;BME280;16252;49.816;7.964;2023-01-16T04:32:06;97968.84;;;8.13;62.59
29215;BME280;16252;49.816;7.964;2023-01-16T04:34:31;97973.44;;;8.20;62.34
29215;BME280;16252;49.816;7.964;2023-01-16T04:36:56;97969.13;;;8.28;62.30
29215;BME280;16252;49.816;7.964;2023-01-16T04:39:22;97984.34;;;8.35;62.60
29215;BME280;16252;49.816;7.964;2023-01-16T04:41:47;97952.13;;;8.20;62.17
29215;BME280;16252;49.816;7.964;2023-01-16T04:44:15;97948.44;;;8.21;62.24
29215;BME280;16252;49.816;7.964;2023-01-16T04:46:41;97970.91;;;8.37;62.12
29215;BME280;16252;49.816;7.964;2023-01-16T04:49:06;97913.44;;;8.16;61.98
29215;BME280;16252;49.816;7.964;2023-01-16T04:51:31;97945.91;;;8.38;62.00
29215;BME280;16252;49.816;7.964;2023-01-16T04:53:57;97875.16;;;7.99;61.90
29215;BME280;16252;49.816;7.964;2023-01-16T04:56:22;97902.16;;;8.22;61.85
29215;BME280;16252;49.816;7.964;2023-01-16T04:58:47;97865.06;;;8.03;61.93
29215;BME280;16252;49.816;7.964;2023-01-16T05:01:15;97843.75;;;8.03;61.83
29215;BME280;16252;49.816;7.964;2023-01-16T05:03:40;97879.25;;;8.30;61.85
29215;BME280;16252;49.816;7.964;2023-01-16T05:06:05;97845.00;;;8.17;61.88
29215;BME280;16252;49.816;7.964;2023-01-16T05:08:31;97864.88;;;8.40;61.81
29215;BME280;16252;49.816;7.964;2023-01-16T05:10:56;97855.31;;;8.38;61.76
29215;BME280;16252;49.816;7.964;2023-01-16T05:13:24;97846.34;;;8.39;61.82
29215;BME280;16252;49.816;7.964;2023-01-16T05:15:49;97854.75;;;8.44;61.78
29215;BME280;16252;49.816;7.964;2023-01-16T05:18:14;97802.78;;;8.22;61.56
29215;BME280;16252;49.816;7.964;2023-01-16T05:20:40;97803.00;;;8.29;61.48
29215;BME280;16252;49.816;7.964;2023-01-16T05:23:05;97743.81;;;7.91;61.59
29215;BME280;16252;49.816;7.964;2023-01-16T05:25:31;97823.59;;;8.44;61.57
29215;BME280;16252;49.816;7.964;2023-01-16T05:27:56;97789.34;;;8.32;61.57
29215;BME280;16252;49.816;7.964;2023-01-16T05:30:22;97730.69;;;7.97;61.53
29215;BME280;16252;49.816;7.964;2023-01-16T05:32:47;97754.56;;;8.07;61.39
29215;BME280;16252;49.816;7.964;2023-01-16T05:35:13;97792.00;;;8.32;61.37
29215;BME280;16252;49.816;7.964;2023-01-16T05:37:38;97763.81;;;8.21;61.37
29215;BME280;16252;49.816;7.964;2023-01-16T05:40:04;97746.28;;;8.10;61.38
29215;BME280;16252;49.816;7.964;2023-01-16T05:42:29;97726.03;;;7.99;61.26
29215;BME280;16252;49.816;7.964;2023-01-16T05:44:55;97746.28;;;8.10;61.38
29215;BME280;16252;49.816;7.964;2023-01-16T05:47:21;97735.91;;;8.07;61.24
29215;BME280;16252;49.816;7.964;2023-01-16T05:49:47;97745.78;;;8.15;61.17
29215;BME280;16252;49.816;7.964;2023-01-16T05:52:13;97715.56;;;7.98;61.14
29215;BME280;16252;49.816;7.964;2023-01-16T05:54:38;97728.59;;;8.09;61.05
29215;BME280;16252;49.816;7.964;2023-01-16T05:57:04;97696.84;;;7.90;61.09
29215;BME280;16252;49.816;7.964;2023-01-16T05:59:29;97692.53;;;7.89;61.11
29215;BME280;16252;49.816;7.964;2023-01-16T06:01:54;97687.72;;;7.92;61.08
29215;BME280;16252;49.816;7.964;2023-01-16T06:04:22;97696.19;;;7.88;61.21
29215;BME280;16252;49.816;7.964;2023-01-16T06:06:47;97687.22;;;7.89;61.20
29215;BME280;16252;49.816;7.964;2023-01-16T06:09:12;97693.91;;;7.93;60.92
29215;BME280;16252;49.816;7.964;2023-01-16T06:11:37;97673.16;;;7.78;60.83
29215;BME280;16252;49.816;7.964;2023-01-16T06:14:03;97671.44;;;7.69;60.88
29215;BME280;16252;49.816;7.964;2023-01-16T06:16:31;97686.25;;;7.72;60.88
29215;BME280;16252;49.816;7.964;2023-01-16T06:18:56;97679.22;;;7.63;61.10
29215;BME280;16252;49.816;7.964;2023-01-16T06:21:22;97662.50;;;7.52;61.04
29215;BME280;16252;49.816;7.964;2023-01-16T06:23:47;97631.91;;;7.30;61.05
29215;BME280;16252;49.816;7.964;2023-01-16T06:26:12;97576.56;;;6.90;61.20
29215;BME280;16252;49.816;7.964;2023-01-16T06:28:38;97613.16;;;7.14;61.10
29215;BME280;16252;49.816;7.964;2023-01-16T06:31:04;97644.22;;;7.31;61.25
29215;BME280;16252;49.816;7.964;2023-01-16T06:33:30;97632.63;;;7.14;61.29
29215;BME280;16252;49.816;7.964;2023-01-16T06:35:55;97639.13;;;7.20;61.22
29215;BME280;16252;49.816;7.964;2023-01-16T06:38:21;97634.97;;;7.18;61.26
29215;BME280;16252;49.816;7.964;2023-01-16T06:40:46;97581.50;;;6.85;61.29
29215;BME280;16252;49.816;7.964;2023-01-16T06:43:11;97585.53;;;6.89;61.38
29215;BME280;16252;49.816;7.964;2023-01-16T06:45:37;97612.13;;;7.07;61.37
29215;BME280;16252;49.816;7.964;2023-01-16T06:48:02;97598.06;;;6.97;61.35
29215;BME280;16252;49.816;7.964;2023-01-16T06:50:28;97585.22;;;6.92;61.43
29215;BME280;16252;49.816;7.964;2023-01-16T06:52:53;97580.75;;;6.92;61.35
29215;BME280;16252;49.816;7.964;2023-01-16T06:55:19;97548.94;;;6.83;61.50
29215;BME280;16252;49.816;7.964;2023-01-16T06:57:45;97578.97;;;7.01;61.44
29215;BME280;16252;49.816;7.964;2023-01-16T07:00:11;97536.28;;;6.77;61.39
29215;BME280;16252;49.816;7.964;2023-01-16T07:02:37;97538.31;;;6.83;61.45
29215;BME280;16252;49.816;7.964;2023-01-16T07:05:06;97538.63;;;6.80;61.48
29215;BME280;16252;49.816;7.964;2023-01-16T07:07:31;97553.16;;;6.93;61.29
29215;BME280;16252;49.816;7.964;2023-01-16T07:09:57;97521.38;;;6.84;61.42
29215;BME280;16252;49.816;7.964;2023-01-16T07:12:22;97541.56;;;6.94;61.47
29215;BME280;16252;49.816;7.964;2023-01-16T07:14:47;97505.72;;;6.81;61.36
29215;BME280;16252;49.816;7.964;2023-01-16T07:17:31;97515.44;;;6.90;61.21
29215;BME280;16252;49.816;7.964;2023-01-16T07:20:15;97488.63;;;6.83;61.18
29215;BME280;16252;49.816;7.964;2023-01-16T07:22:59;97493.03;;;6.92;61.22
29215;BME280;16252;49.816;7.964;2023-01-16T07:25:34;97498.94;;;7.04;61.15
29215;BME280;16252;49.816;7.964;2023-01-16T07:28:00;97478.91;;;6.92;60.98
29215;BME280;16252;49.816;7.964;2023-01-16T07:30:25;97475.88;;;6.87;61.00
29215;BME280;16252;49.816;7.964;2023-01-16T07:32:51;97442.72;;;6.73;60.90
29215;BME280;16252;49.816;7.964;2023-01-16T07:35:16;97443.94;;;6.79;61.04
29215;BME280;16252;49.816;7.964;2023-01-16T07:37:41;97461.47;;;6.89;61.21
29215;BME280;16252;49.816;7.964;2023-01-16T07:40:08;97458.00;;;6.97;61.03
29215;BME280;16252;49.816;7.964;2023-01-16T07:42:33;97438.69;;;6.87;61.04
29215;BME280;16252;49.816;7.964;2023-01-16T07:44:58;97411.84;;;6.72;60.76
29215;BME280;16252;49.816;7.964;2023-01-16T07:47:24;97411.69;;;6.73;61.13
29215;BME280;16252;49.816;7.964;2023-01-16T07:49:49;97448.84;;;6.91;61.13
29215;BME280;16252;49.816;7.964;2023-01-16T07:52:14;97430.38;;;6.90;61.15
29215;BME280;16252;49.816;7.964;2023-01-16T07:54:42;97426.69;;;6.83;61.13
29215;BME280;16252;49.816;7.964;2023-01-16T07:57:07;97371.41;;;6.60;61.29
29215;BME280;16252;49.816;7.964;2023-01-16T07:59:32;97432.13;;;6.99;61.19
29215;BME280;16252;49.816;7.964;2023-01-16T08:01:58;97393.97;;;6.82;61.45
29215;BME280;16252;49.816;7.964;2023-01-16T08:04:23;97414.00;;;7.03;61.68
29215;BME280;16252;49.816;7.964;2023-01-16T08:06:48;97418.66;;;7.01;61.55
29215;BME280;16252;49.816;7.964;2023-01-16T08:09:13;97383.69;;;6.87;62.35
29215;BME280;16252;49.816;7.964;2023-01-16T08:11:39;97361.06;;;6.83;63.01
29215;BME280;16252;49.816;7.964;2023-01-16T08:14:06;97372.63;;;7.00;63.77
29215;BME280;16252;49.816;7.964;2023-01-16T08:16:32;97368.25;;;6.91;64.15
29215;BME280;16252;49.816;7.964;2023-01-16T08:18:57;97363.09;;;6.81;64.55
29215;BME280;16252;49.816;7.964;2023-01-16T08:21:23;97362.53;;;6.78;64.68
29215;BME280;16252;49.816;7.964;2023-01-16T08:23:48;97371.47;;;6.68;65.15
29215;BME280;16252;49.816;7.964;2023-01-16T08:26:13;97342.66;;;6.56;65.49
29215;BME280;16252;49.816;7.964;2023-01-16T08:28:39;97322.41;;;6.28;65.79
29215;BME280;16252;49.816;7.964;2023-01-16T08:31:06;97294.59;;;6.15;66.18
29215;BME280;16252;49.816;7.964;2023-01-16T08:33:35;97344.06;;;6.42;66.21
29215;BME280;16252;49.816;7.964;2023-01-16T08:36:01;97296.56;;;6.13;66.33
29215;BME280;16252;49.816;7.964;2023-01-16T08:38:27;97308.84;;;6.14;66.65
29215;BME280;16252;49.816;7.964;2023-01-16T08:40:52;97304.16;;;6.07;66.75
29215;BME280;16252;49.816;7.964;2023-01-16T08:43:17;97299.47;;;6.01;66.73
29215;BME280;16252;49.816;7.964;2023-01-16T08:46:01;97290.13;;;5.97;66.96
29215;BME280;16252;49.816;7.964;2023-01-16T08:48:50;97314.16;;;6.14;67.09
29215;BME280;16252;49.816;7.964;2023-01-16T08:51:34;97312.47;;;6.13;66.97
29215;BME280;16252;49.816;7.964;2023-01-16T08:53:59;97301.66;;;6.06;66.82
29215;BME280;16252;49.816;7.964;2023-01-16T08:56:24;97283.69;;;6.00;67.24
29215;BME280;16252;49.816;7.964;2023-01-16T08:58:50;97265.03;;;5.92;67.08
29215;BME280;16252;49.816;7.964;2023-01-16T09:01:15;97255.72;;;5.88;67.07
29215;BME280;16252;49.816;7.964;2023-01-16T09:03:41;97303.53;;;6.14;66.89
29215;BME280;16252;49.816;7.964;2023-01-16T09:06:07;97305.75;;;6.18;66.91
29215;BME280;16252;49.816;7.964;2023-01-16T09:08:32;97255.88;;;5.86;66.88
29215;BME280;16252;49.816;7.964;2023-01-16T09:10:57;97240.78;;;5.86;66.82
29215;BME280;16252;49.816;7.964;2023-01-16T09:13:41;97273.75;;;6.02;66.58
29215;BME280;16252;49.816;7.964;2023-01-16T09:16:21;97244.56;;;5.84;67.22
29215;BME280;16252;49.816;7.964;2023-01-16T09:18:47;97243.88;;;5.82;66.78
29215;BME280;16252;49.816;7.964;2023-01-16T09:21:13;97267.63;;;6.01;66.98
29215;BME280;16252;49.816;7.964;2023-01-16T09:23:39;97259.81;;;6.00;67.03
29215;BME280;16252;49.816;7.964;2023-01-16T09:26:04;97218.00;;;5.76;66.77
29215;BME280;16252;49.816;7.964;2023-01-16T09:28:30;97269.00;;;6.05;66.54
29215;BME280;16252;49.816;7.964;2023-01-16T09:30:55;97242.97;;;5.91;66.79
29215;BME280;16252;49.816;7.964;2023-01-16T09:33:20;97228.34;;;5.87;66.89
29215;BME280;16252;49.816;7.964;2023-01-16T09:35:45;97225.41;;;5.90;67.13
29215;BME280;16252;49.816;7.964;2023-01-16T09:38:10;97151.44;;;5.43;66.90
29215;BME280;16252;49.816;7.964;2023-01-16T09:40:36;97231.63;;;5.99;66.88
29215;BME280;16252;49.816;7.964;2023-01-16T09:43:12;97209.75;;;5.87;66.81
29215;BME280;16252;49.816;7.964;2023-01-16T09:46:03;97222.66;;;6.00;67.05
29215;BME280;16252;49.816;7.964;2023-01-16T09:48:32;97250.28;;;6.15;66.62
29215;BME280;16252;49.816;7.964;2023-01-16T09:51:02;97242.13;;;6.08;67.37
29215;BME280;16252;49.816;7.964;2023-01-16T09:56:28;97215.59;;;5.91;67.77
29215;BME280;16252;49.816;7.964;2023-01-16T09:59:35;97244.22;;;6.23;67.72
29215;BME280;16252;49.816;7.964;2023-01-16T10:02:34;97242.84;;;6.19;67.30
29215;BME280;16252;49.816;7.964;2023-01-16T10:04:55;97176.13;;;5.88;67.43
29215;BME280;16252;49.816;7.964;2023-01-16T10:10:36;97226.50;;;6.32;66.55
29215;BME280;16252;49.816;7.964;2023-01-16T10:15:49;97227.66;;;6.29;67.65
29215;BME280;16252;49.816;7.964;2023-01-16T10:18:49;97196.94;;;6.26;67.62
29215;BME280;16252;49.816;7.964;2023-01-16T10:22:01;97198.47;;;6.37;67.91
29215;BME280;16252;49.816;7.964;2023-01-16T10:24:52;97158.41;;;6.22;67.94
29215;BME280;16252;49.816;7.964;2023-01-16T10:27:27;97193.25;;;6.54;65.99
29215;BME280;16252;49.816;7.964;2023-01-16T10:29:57;97175.94;;;6.41;67.23
29215;BME280;16252;49.816;7.964;2023-01-16T10:32:35;97154.34;;;6.36;67.69
29215;BME280;16252;49.816;7.964;2023-01-16T10:35:29;97165.53;;;6.56;67.08
29215;BME280;16252;49.816;7.964;2023-01-16T10:38:06;97138.41;;;6.36;68.17
29215;BME280;16252;49.816;7.964;2023-01-16T10:40:32;97121.94;;;6.33;67.65
29215;BME280;16252;49.816;7.964;2023-01-16T10:43:02;97156.09;;;6.62;67.96
29215;BME280;16252;49.816;7.964;2023-01-16T10:45:49;97121.84;;;6.50;67.83
29215;BME280;16252;49.816;7.964;2023-01-16T10:48:34;97136.81;;;6.68;68.06
29215;BME280;16252;49.816;7.964;2023-01-16T10:51:17;97109.28;;;6.69;68.14
29215;BME280;16252;49.816;7.964;2023-01-16T10:53:44;97081.03;;;6.60;68.18
29215;BME280;16252;49.816;7.964;2023-01-16T10:56:09;97061.44;;;6.61;68.58
29215;BME280;16252;49.816;7.964;2023-01-16T10:58:36;97052.16;;;6.73;68.11
29215;BME280;16252;49.816;7.964;2023-01-16T11:01:11;97084.25;;;7.04;68.59
29215;BME280;16252;49.816;7.964;2023-01-16T11:03:44;97092.38;;;7.19;68.06
29215;BME280;16252;49.816;7.964;2023-01-16T11:08:53;97078.88;;;7.29;67.52
29215;BME280;16252;49.816;7.964;2023-01-16T11:11:19;97067.94;;;7.24;67.39
29215;BME280;16252;49.816;7.964;2023-01-16T11:14:13;97062.94;;;7.29;67.19
29215;BME280;16252;49.816;7.964;2023-01-16T11:17:22;97065.75;;;7.35;66.97
29215;BME280;16252;49.816;7.964;2023-01-16T11:20:09;97057.31;;;7.32;67.73
29215;BME280;16252;49.816;7.964;2023-01-16T11:22:39;97019.94;;;7.17;67.57
29215;BME280;16252;49.816;7.964;2023-01-16T11:25:05;97023.72;;;7.23;67.99
29215;BME280;16252;49.816;7.964;2023-01-16T11:27:34;96976.75;;;7.07;67.55
29215;BME280;16252;49.816;7.964;2023-01-16T11:30:04;96974.88;;;7.15;68.05
29215;BME280;16252;49.816;7.964;2023-01-16T11:32:34;96981.81;;;7.33;68.21
29215;BME280;16252;49.816;7.964;2023-01-16T11:35:10;97000.69;;;7.54;68.55
29215;BME280;16252;49.816;7.964;2023-01-16T11:37:37;96954.09;;;7.27;67.88
29215;BME280;16252;49.816;7.964;2023-01-16T11:40:04;96975.63;;;7.49;68.22
29215;BME280;16252;49.816;7.964;2023-01-16T11:42:30;96929.13;;;7.45;67.87
29215;BME280;16252;49.816;7.964;2023-01-16T11:45:17;96931.88;;;7.51;68.05
29215;BME280;16252;49.816;7.964;2023-01-16T11:48:05;96953.06;;;7.76;68.12
29215;BME280;16252;49.816;7.964;2023-01-16T11:50:53;96926.16;;;7.71;67.68
29215;BME280;16252;49.816;7.964;2023-01-16T11:53:19;96911.00;;;7.71;68.11
29215;BME280;16252;49.816;7.964;2023-01-16T11:56:16;96930.19;;;7.98;67.58
29215;BME280;16252;49.816;7.964;2023-01-16T11:59:12;96916.16;;;8.04;67.63
29215;BME280;16252;49.816;7.964;2023-01-16T12:01:56;96913.13;;;8.07;67.50
29215;BME280;16252;49.816;7.964;2023-01-16T12:04:42;96911.34;;;8.22;66.77
29215;BME280;16252;49.816;7.964;2023-01-16T12:07:39;96879.00;;;8.11;67.37
29215;BME280;16252;49.816;7.964;2023-01-16T12:10:17;96887.88;;;8.26;67.25
29215;BME280;16252;49.816;7.964;2023-01-16T12:12:54;96845.91;;;8.05;67.07
29215;BME280;16252;49.816;7.964;2023-01-16T12:15:50;96850.69;;;8.33;67.27
29215;BME280;16252;49.816;7.964;2023-01-16T12:18:49;96825.44;;;8.29;67.08
29215;BME280;16252;49.816;7.964;2023-01-16T12:21:29;96827.00;;;8.38;66.93
29215;BME280;16252;49.816;7.964;2023-01-16T12:24:17;96821.00;;;8.44;66.71
29215;BME280;16252;49.816;7.964;2023-01-16T12:26:49;96803.91;;;8.53;66.33
29215;BME280;16252;49.816;7.964;2023-01-16T12:29:46;96757.63;;;8.16;66.94
29215;BME280;16252;49.816;7.964;2023-01-16T12:32:40;96780.16;;;8.29;66.79
29215;BME280;16252;49.816;7.964;2023-01-16T12:35:28;96786.41;;;8.36;66.72
29215;BME280;16252;49.816;7.964;2023-01-16T12:38:04;96767.94;;;8.34;66.68
29215;BME280;16252;49.816;7.964;2023-01-16T12:41:00;96770.28;;;8.52;66.86
29215;BME280;16252;49.816;7.964;2023-01-16T12:46:33;96736.94;;;8.56;67.21
29215;BME280;16252;49.816;7.964;2023-01-16T12:49:14;96764.97;;;8.67;67.32
29215;BME280;16252;49.816;7.964;2023-01-16T12:54:33;96732.06;;;8.75;67.42
29215;BME280;16252;49.816;7.964;2023-01-16T12:59:40;96674.28;;;8.60;67.20
29215;BME280;16252;49.816;7.964;2023-01-16T13:05:02;96713.19;;;8.91;66.65
29215;BME280;16252;49.816;7.964;2023-01-16T13:07:33;96705.25;;;8.76;66.70
29215;BME280;16252;49.816;7.964;2023-01-16T13:12:54;96705.41;;;8.75;66.69
29215;BME280;16252;49.816;7.964;2023-01-16T13:15:41;96705.69;;;8.80;67.25
29215;BME280;16252;49.816;7.964;2023-01-16T13:18:21;96704.31;;;8.84;67.03
29215;BME280;16252;49.816;7.964;2023-01-16T13:20:52;96692.72;;;8.77;67.05
29215;BME280;16252;49.816;7.964;2023-01-16T13:23:23;96681.19;;;8.55;67.03
29215;BME280;16252;49.816;7.964;2023-01-16T13:26:03;96699.00;;;8.69;67.02
29215;BME280;16252;49.816;7.964;2023-01-16T13:34:18;96689.72;;;8.50;66.97
29215;BME280;16252;49.816;7.964;2023-01-16T13:42:54;96628.72;;;8.25;67.34
29215;BME280;16252;49.816;7.964;2023-01-16T13:45:30;96631.47;;;8.32;67.35
29215;BME280;16252;49.816;7.964;2023-01-16T13:48:20;96622.38;;;8.27;67.71
29215;BME280;16252;49.816;7.964;2023-01-16T13:50:57;96603.91;;;8.25;67.12
29215;BME280;16252;49.816;7.964;2023-01-16T13:53:29;96602.66;;;8.21;68.03
29215;BME280;16252;49.816;7.964;2023-01-16T13:56:14;96586.84;;;8.19;67.04
29215;BME280;16252;49.816;7.964;2023-01-16T13:58:42;96575.56;;;8.17;67.77
29215;BME280;16252;49.816;7.964;2023-01-16T14:01:31;96550.88;;;8.09;67.44
29215;BME280;16252;49.816;7.964;2023-01-16T14:04:11;96564.19;;;8.23;67.26
29215;BME280;16252;49.816;7.964;2023-01-16T14:06:52;96543.97;;;8.14;67.45
29215;BME280;16252;49.816;7.964;2023-01-16T14:15:23;96522.78;;;8.06;67.86
29215;BME280;16252;49.816;7.964;2023-01-16T14:18:17;96538.38;;;8.24;67.92
29215;BME280;16252;49.816;7.964;2023-01-16T14:23:29;96528.53;;;8.24;67.36
29215;BME280;16252;49.816;7.964;2023-01-16T14:26:19;96509.38;;;8.14;67.52
29215;BME280;16252;49.816;7.964;2023-01-16T14:28:48;96524.88;;;8.25;67.91
29215;BME280;16252;49.816;7.964;2023-01-16T14:31:22;96506.16;;;8.19;67.98
29215;BME280;16252;49.816;7.964;2023-01-16T14:33:49;96487.81;;;8.09;68.50
29215;BME280;16252;49.816;7.964;2023-01-16T14:36:18;96508.16;;;8.17;68.96
29215;BME280;16252;49.816;7.964;2023-01-16T14:38:46;96486.72;;;8.03;68.40
29215;BME280;16252;49.816;7.964;2023-01-16T14:41:16;96518.00;;;8.16;68.30
29215;BME280;16252;49.816;7.964;2023-01-16T14:44:20;96507.72;;;8.13;68.04
29215;BME280;16252;49.816;7.964;2023-01-16T14:47:25;96496.09;;;7.99;69.50
29215;BME280;16252;49.816;7.964;2023-01-16T14:50:11;96481.81;;;7.86;69.67
29215;BME280;16252;49.816;7.964;2023-01-16T14:56:06;96425.97;;;7.41;69.88